Time;durP1;ratioP1;P1;durP2;ratioP2;P2;SDS_P1;SDS_P2;PMS_P1;PMS_P2;Temp;Humidity;BMP_temperature;BMP_pressure;BME280_temperature;BME280_humidity;BME280_pressure;Samples;Min_cycle;Max_cycle;Signal;HPM_P1;HPM_P2
2022/05/20 00:01:54;;;;;;;17.10;14.13;;;13.70;99.90;;;;;;5087481;28;20052;-51
2022/05/20 00:04:20;;;;;;;17.30;13.68;;;13.70;99.90;;;;;;5070039;28;20126;-48
2022/05/20 00:06:46;;;;;;;16.30;14.02;;;13.70;99.90;;;;;;5069464;28;20615;-58
2022/05/20 00:09:12;;;;;;;15.80;14.13;;;13.70;99.90;;;;;;5069767;28;20036;-58
2022/05/20 00:11:38;;;;;;;15.88;13.98;;;13.70;99.90;;;;;;5087677;28;20123;-58
2022/05/20 00:14:07;;;;;;;17.27;14.32;;;13.80;99.90;;;;;;5036009;28;20043;-58
2022/05/20 00:16:36;;;;;;;15.05;13.13;;;13.70;99.90;;;;;;5068916;28;20052;-50
2022/05/20 00:19:07;;;;;;;15.55;13.82;;;13.80;99.90;;;;;;5069051;28;20588;-52
2022/05/20 00:21:34;;;;;;;16.90;13.93;;;13.80;99.90;;;;;;5087469;28;20236;-46
2022/05/20 00:24:00;;;;;;;17.05;15.20;;;13.80;99.90;;;;;;5087532;28;20326;-47
2022/05/20 00:26:27;;;;;;;18.35;15.52;;;13.80;99.90;;;;;;5069090;28;20051;-45
2022/05/20 00:28:53;;;;;;;19.02;17.10;;;13.70;99.90;;;;;;5086904;28;20139;-47
2022/05/20 00:31:22;;;;;;;19.95;16.17;;;13.70;99.90;;;;;;5069128;28;20060;-45
2022/05/20 00:33:49;;;;;;;19.42;16.23;;;13.70;99.90;;;;;;5052641;28;20062;-47
2022/05/20 00:36:15;;;;;;;18.88;16.85;;;13.70;99.90;;;;;;5087468;28;20066;-46
2022/05/20 00:38:41;;;;;;;18.83;16.95;;;13.70;99.90;;;;;;5050886;28;20565;-52
2022/05/20 00:41:09;;;;;;;18.67;16.77;;;13.70;99.90;;;;;;5074257;28;20407;-49
2022/05/20 00:43:44;;;;;;;18.67;16.73;;;13.70;99.90;;;;;;5074751;28;20075;-48
2022/05/20 00:46:17;;;;;;;19.00;16.98;;;13.80;99.90;;;;;;5049938;28;20036;-49
2022/05/20 00:48:43;;;;;;;18.77;16.77;;;13.70;99.90;;;;;;5086621;28;20063;-48
2022/05/20 00:51:19;;;;;;;18.23;16.42;;;13.70;99.90;;;;;;5069227;28;20048;-46
2022/05/20 00:54:21;;;;;;;19.73;17.75;;;13.70;99.90;;;;;;5086891;28;20079;-46
2022/05/20 00:56:56;;;;;;;19.67;17.58;;;13.80;99.90;;;;;;5082841;28;20767;-48
2022/05/20 00:59:28;;;;;;;18.55;16.65;;;13.80;99.90;;;;;;5035588;28;20787;-52
2022/05/20 01:01:57;;;;;;;19.27;17.27;;;13.70;99.90;;;;;;5051707;28;20051;-46
2022/05/20 01:04:24;;;;;;;18.80;16.85;;;13.80;99.90;;;;;;5068426;28;20055;-58
2022/05/20 01:06:53;;;;;;;19.02;17.33;;;13.70;99.90;;;;;;5068238;28;20390;-58
2022/05/20 01:09:19;;;;;;;19.45;17.75;;;13.80;99.90;;;;;;5086816;28;20072;-49
2022/05/20 01:11:45;;;;;;;19.85;16.77;;;13.80;99.90;;;;;;5068471;28;20044;-46
2022/05/20 01:14:19;;;;;;;19.73;17.65;;;13.80;99.90;;;;;;5086518;28;20103;-58
2022/05/20 01:16:46;;;;;;;20.00;18.17;;;13.80;99.90;;;;;;5086608;28;20150;-57
2022/05/20 01:19:21;;;;;;;22.33;18.63;;;13.80;99.90;;;;;;5085835;28;20056;-58
2022/05/20 01:21:47;;;;;;;19.73;17.60;;;13.80;99.90;;;;;;5086173;28;20044;-58
2022/05/20 01:24:13;;;;;;;20.42;17.63;;;13.70;99.90;;;;;;5086245;28;20121;-49
2022/05/20 01:26:39;;;;;;;19.73;17.63;;;13.70;99.90;;;;;;5052063;28;20047;-51
2022/05/20 01:29:07;;;;;;;17.52;15.73;;;13.60;99.90;;;;;;5067410;28;20481;-49
2022/05/20 01:31:33;;;;;;;14.25;12.82;;;13.60;99.90;;;;;;5086684;28;20804;-51
2022/05/20 01:33:59;;;;;;;14.88;13.20;;;13.50;99.90;;;;;;5068181;28;20659;-51
2022/05/20 01:36:26;;;;;;;15.27;13.02;;;13.60;99.90;;;;;;5068612;28;20127;-46
2022/05/20 01:38:53;;;;;;;14.93;13.32;;;13.60;99.90;;;;;;5068260;28;20054;-46
2022/05/20 01:41:45;;;;;;;17.10;12.85;;;13.60;99.90;;;;;;5034517;28;20043;-50
2022/05/20 01:44:18;;;;;;;15.48;12.93;;;13.50;99.90;;;;;;5051464;28;20071;-47
2022/05/20 01:46:50;;;;;;;12.98;10.75;;;13.50;99.90;;;;;;5051191;28;20044;-48
2022/05/20 01:49:22;;;;;;;13.85;11.40;;;13.40;99.90;;;;;;5078255;28;20053;-47
2022/05/20 01:52:10;;;;;;;12.73;11.30;;;13.40;99.90;;;;;;5085097;28;20051;-47
2022/05/20 01:54:49;;;;;;;13.95;12.30;;;13.30;99.90;;;;;;5067440;28;20131;-46
2022/05/20 01:57:51;;;;;;;16.30;12.35;;;13.30;99.90;;;;;;5067264;28;20087;-59
2022/05/20 02:00:25;;;;;;;13.23;11.57;;;13.30;99.90;;;;;;5039241;28;20476;-48
2022/05/20 02:03:15;;;;;;;14.20;11.70;;;13.30;99.90;;;;;;5084934;28;20443;-46
2022/05/20 02:05:54;;;;;;;16.20;13.02;;;13.30;99.90;;;;;;5084445;28;20036;-46
2022/05/20 02:08:35;;;;;;;16.98;12.88;;;13.30;99.90;;;;;;5055380;28;20071;-59
2022/05/20 02:11:36;;;;;;;15.88;12.35;;;13.40;99.90;;;;;;5075078;28;20063;-48
2022/05/20 02:14:05;;;;;;;17.30;13.57;;;13.40;99.90;;;;;;4980404;28;20235;-50
2022/05/20 02:16:36;;;;;;;16.83;12.52;;;13.40;99.90;;;;;;5046436;28;20048;-51
2022/05/20 02:19:27;;;;;;;16.38;13.35;;;13.40;99.90;;;;;;5071663;28;20070;-49
2022/05/20 02:21:58;;;;;;;17.38;13.63;;;13.40;99.90;;;;;;5057531;28;20531;-49
2022/05/20 02:24:28;;;;;;;20.02;13.65;;;13.40;99.90;;;;;;5074036;28;20040;-59
2022/05/20 02:27:00;;;;;;;23.45;13.93;;;13.40;99.90;;;;;;5054163;28;20584;-46
2022/05/20 02:29:43;;;;;;;19.13;13.55;;;13.50;99.90;;;;;;5074970;28;20583;-58
2022/05/20 02:32:36;;;;;;;15.43;12.82;;;13.50;99.90;;;;;;5042836;28;20056;-46
2022/05/20 02:35:03;;;;;;;14.85;12.07;;;13.40;99.90;;;;;;5073840;28;20059;-58
2022/05/20 02:37:35;;;;;;;14.82;11.80;;;13.40;99.90;;;;;;5074305;28;20040;-58
2022/05/20 02:40:04;;;;;;;15.85;12.35;;;13.40;99.90;;;;;;5054703;28;20056;-47
2022/05/20 02:42:30;;;;;;;15.25;12.82;;;13.40;99.90;;;;;;5072821;28;20409;-58
2022/05/20 02:44:59;;;;;;;15.65;13.02;;;13.40;99.90;;;;;;5072981;28;20495;-58
2022/05/20 02:47:33;;;;;;;15.25;11.57;;;13.50;99.90;;;;;;5072329;28;20087;-59
2022/05/20 02:50:10;;;;;;;15.73;13.10;;;13.50;99.90;;;;;;5057949;28;20058;-51
2022/05/20 02:52:36;;;;;;;16.88;13.20;;;13.40;99.90;;;;;;5072465;28;20386;-58
2022/05/20 02:55:04;;;;;;;15.70;12.55;;;13.40;99.90;;;;;;5039168;28;20739;-58
2022/05/20 02:57:30;;;;;;;14.85;12.95;;;13.40;99.90;;;;;;5073311;28;20048;-59
2022/05/20 03:05:25;;;;;;;15.55;13.20;;;13.30;99.90;;;;;;5072861;28;20110;-58
2022/05/20 03:07:51;;;;;;;18.42;14.57;;;13.30;99.90;;;;;;5054846;28;20040;-59
2022/05/20 03:10:17;;;;;;;16.52;14.77;;;13.30;99.90;;;;;;5054622;28;20127;-50
2022/05/20 03:12:43;;;;;;;16.48;14.45;;;13.30;99.90;;;;;;5071309;28;20405;-58
2022/05/20 03:15:13;;;;;;;18.88;14.85;;;13.20;99.90;;;;;;5065595;28;20058;-58
2022/05/20 03:17:40;;;;;;;20.48;15.65;;;13.30;99.90;;;;;;5067733;28;20054;-50
2022/05/20 03:20:08;;;;;;;18.35;15.48;;;13.20;99.90;;;;;;5065585;28;20047;-51
2022/05/20 03:22:36;;;;;;;18.20;15.15;;;13.20;99.90;;;;;;5066322;28;20101;-51
2022/05/20 03:25:04;;;;;;;17.02;15.27;;;13.20;99.90;;;;;;5084443;28;20762;-48
2022/05/20 03:27:31;;;;;;;19.35;15.00;;;13.20;99.90;;;;;;5084777;28;20048;-46
2022/05/20 03:29:57;;;;;;;17.20;14.88;;;13.20;99.90;;;;;;5086335;28;20048;-50
2022/05/20 03:32:23;;;;;;;17.13;15.35;;;13.20;99.90;;;;;;5087321;28;20064;-48
2022/05/20 03:34:49;;;;;;;19.23;16.25;;;13.10;99.90;;;;;;5091139;28;20047;-52
2022/05/20 03:37:15;;;;;;;22.70;16.83;;;13.10;99.90;;;;;;5093728;28;20400;-50
2022/05/20 03:39:41;;;;;;;19.13;15.35;;;13.10;99.90;;;;;;5053643;28;20048;-48
2022/05/20 03:42:07;;;;;;;18.95;16.58;;;13.00;99.90;;;;;;5069510;28;20157;-48
2022/05/20 03:44:34;;;;;;;23.48;17.58;;;13.00;99.90;;;;;;5088375;28;20149;-46
2022/05/20 03:47:01;;;;;;;20.40;17.42;;;13.00;99.90;;;;;;5088181;28;20515;-49
2022/05/20 03:49:29;;;;;;;21.88;17.65;;;12.90;99.90;;;;;;5036147;28;20111;-59
2022/05/20 03:51:57;;;;;;;18.58;16.73;;;12.90;99.90;;;;;;5087796;28;20081;-60
2022/05/20 03:54:28;;;;;;;19.42;17.25;;;12.90;99.90;;;;;;5069119;28;20094;-60
2022/05/20 03:56:54;;;;;;;19.88;17.77;;;12.90;99.90;;;;;;5087917;28;20886;-60
2022/05/20 03:59:20;;;;;;;21.40;18.30;;;12.90;99.90;;;;;;5035980;28;20134;-59
2022/05/20 04:01:58;;;;;;;23.23;18.73;;;12.90;99.90;;;;;;5069420;28;20040;-59
2022/05/20 04:04:29;;;;;;;21.42;18.10;;;12.80;99.90;;;;;;5051801;28;20052;-59
2022/05/20 04:06:55;;;;;;;20.95;18.58;;;12.80;99.90;;;;;;5068665;28;20109;-60
2022/05/20 04:09:21;;;;;;;22.20;19.20;;;12.80;99.90;;;;;;5052047;28;20046;-60
2022/05/20 04:11:52;;;;;;;21.67;19.33;;;12.90;99.90;;;;;;5068874;28;20457;-60
2022/05/20 04:14:18;;;;;;;22.98;20.50;;;12.80;99.90;;;;;;5070274;28;20044;-59
2022/05/20 04:16:44;;;;;;;22.13;20.13;;;12.90;99.90;;;;;;5089650;28;20044;-48
2022/05/20 04:19:11;;;;;;;21.35;19.13;;;12.90;99.90;;;;;;5064822;28;20458;-50
2022/05/20 04:21:38;;;;;;;22.58;20.27;;;12.90;99.90;;;;;;5077236;28;20497;-52
2022/05/20 04:24:05;;;;;;;21.15;19.00;;;12.90;99.90;;;;;;5075302;28;20036;-53
2022/05/20 04:26:31;;;;;;;21.10;19.00;;;13.00;99.90;;;;;;5059903;28;20138;-47
2022/05/20 04:28:57;;;;;;;21.92;19.65;;;13.00;99.90;;;;;;5057831;28;20055;-48
2022/05/20 04:31:24;;;;;;;26.35;18.30;;;13.00;99.90;;;;;;5059049;28;20138;-50
2022/05/20 04:33:50;;;;;;;20.73;18.40;;;13.00;99.90;;;;;;5057045;28;20040;-49
2022/05/20 04:36:16;;;;;;;20.80;18.75;;;13.00;99.90;;;;;;5041826;28;20040;-59
2022/05/20 04:38:42;;;;;;;20.45;17.65;;;12.90;99.90;;;;;;5059973;28;20040;-59
2022/05/20 04:49:21;;;;;;;20.40;18.23;;;12.90;99.90;;;;;;5076285;28;20617;-58
2022/05/20 04:51:47;;;;;;;19.73;17.70;;;13.00;99.90;;;;;;5058029;28;20754;-52
2022/05/20 04:56:58;;;;;;;21.55;19.27;;;13.00;99.90;;;;;;5075031;28;20405;-52
2022/05/20 04:59:24;;;;;;;20.33;18.08;;;13.10;99.90;;;;;;5074908;28;20603;-50
2022/05/20 05:01:51;;;;;;;20.98;18.83;;;13.10;99.90;;;;;;5075613;28;20051;-47
2022/05/20 05:04:18;;;;;;;20.75;18.60;;;13.30;99.90;;;;;;5057337;28;20397;-48
2022/05/20 05:06:45;;;;;;;19.48;17.45;;;13.60;99.90;;;;;;5076465;28;20055;-47
2022/05/20 05:09:11;;;;;;;18.75;16.05;;;13.80;99.90;;;;;;5055284;28;20393;-46
2022/05/20 05:11:39;;;;;;;17.40;15.75;;;14.20;99.90;;;;;;5074803;28;20159;-57
2022/05/20 05:14:10;;;;;;;17.80;15.60;;;14.50;99.90;;;;;;5073535;28;20431;-59
2022/05/20 05:16:38;;;;;;;17.10;15.18;;;14.90;99.90;;;;;;5058066;28;20109;-58
2022/05/20 05:19:04;;;;;;;16.63;14.52;;;15.10;99.90;;;;;;5073042;28;20160;-59
2022/05/20 05:21:30;;;;;;;14.20;12.73;;;15.10;99.90;;;;;;5085408;28;20052;-59
2022/05/20 05:24:00;;;;;;;15.60;11.93;;;15.40;99.90;;;;;;5077997;28;20077;-59
2022/05/20 05:26:28;;;;;;;13.93;11.38;;;15.60;99.90;;;;;;5055514;28;20462;-59
2022/05/20 05:28:55;;;;;;;13.52;11.27;;;15.50;99.90;;;;;;5073850;28;20136;-59
2022/05/20 05:31:21;;;;;;;14.90;10.52;;;15.60;99.90;;;;;;5081247;28;20078;-59
2022/05/20 05:33:47;;;;;;;13.35;10.85;;;15.70;99.90;;;;;;5074208;28;20082;-60
2022/05/20 05:36:14;;;;;;;9.25;8.23;;;16.00;99.90;;;;;;5076303;28;20461;-49
2022/05/20 05:38:41;;;;;;;12.77;10.55;;;16.40;99.90;;;;;;5075661;28;20132;-53
2022/05/20 05:41:08;;;;;;;13.88;10.05;;;16.30;99.90;;;;;;5072872;28;20067;-48
2022/05/20 05:43:34;;;;;;;11.32;10.13;;;16.30;99.90;;;;;;5058022;28;20066;-49
2022/05/20 05:46:00;;;;;;;13.00;10.13;;;16.20;99.90;;;;;;5076050;28;20048;-59
2022/05/20 05:48:27;;;;;;;14.15;11.40;;;16.30;99.90;;;;;;5075037;28;20043;-59
2022/05/20 05:50:55;;;;;;;14.30;10.55;;;16.60;99.90;;;;;;5076622;28;20139;-59
2022/05/20 05:53:24;;;;;;;13.15;10.85;;;16.30;99.90;;;;;;5071550;28;20101;-59
2022/05/20 05:55:59;;;;;;;12.43;10.88;;;16.60;99.90;;;;;;5056595;28;20056;-47
2022/05/20 05:58:26;;;;;;;13.25;11.15;;;16.40;99.90;;;;;;5056110;28;20091;-49
2022/05/20 06:00:54;;;;;;;12.48;10.75;;;16.60;99.90;;;;;;5074323;28;20056;-49
2022/05/20 06:03:21;;;;;;;10.95;9.85;;;16.60;99.90;;;;;;5039085;28;20052;-48
2022/05/20 06:05:47;;;;;;;12.30;11.00;;;16.70;99.90;;;;;;5078701;28;20040;-48
2022/05/20 06:08:14;;;;;;;13.57;9.75;;;16.70;99.90;;;;;;5039176;28;20520;-47
2022/05/20 06:10:41;;;;;;;14.73;10.73;;;16.60;99.90;;;;;;5079746;28;20048;-50
2022/05/20 06:13:07;;;;;;;12.45;10.18;;;16.50;99.90;;;;;;5038187;28;20127;-60
2022/05/20 06:15:33;;;;;;;10.25;9.10;;;16.50;99.90;;;;;;5061697;28;20131;-60
2022/05/20 06:18:00;;;;;;;14.90;10.50;;;16.50;99.90;;;;;;5073651;28;20109;-59
2022/05/20 06:20:27;;;;;;;11.57;9.50;;;16.70;99.90;;;;;;5039228;28;20476;-47
2022/05/20 06:22:54;;;;;;;11.85;9.65;;;17.00;99.90;;;;;;5055481;28;20048;-52
2022/05/20 06:25:20;;;;;;;12.20;10.63;;;17.00;99.90;;;;;;5074393;28;20121;-60
2022/05/20 06:27:46;;;;;;;12.98;9.93;;;17.00;99.90;;;;;;5059783;28;20048;-60
2022/05/20 06:30:19;;;;;;;13.02;10.45;;;16.80;99.90;;;;;;5078371;28;20555;-60
2022/05/20 06:32:46;;;;;;;14.35;9.55;;;16.60;99.90;;;;;;5066713;28;20051;-59
2022/05/20 06:40:45;;;;;;;10.98;9.65;;;16.10;99.90;;;;;;5098134;28;20126;-59
2022/05/20 06:43:13;;;;;;;14.15;11.82;;;16.00;99.90;;;;;;5077092;28;20109;-58
2022/05/20 06:45:39;;;;;;;13.13;11.68;;;16.00;99.90;;;;;;5066644;28;20075;-58
2022/05/20 06:48:06;;;;;;;16.10;12.82;;;15.90;99.90;;;;;;5071811;28;20052;-58
2022/05/20 06:50:35;;;;;;;13.98;11.68;;;15.90;99.90;;;;;;5081168;28;20052;-49
2022/05/20 06:53:01;;;;;;;13.30;11.07;;;16.10;99.90;;;;;;5076719;28;20044;-47
2022/05/20 06:55:27;;;;;;;14.88;11.63;;;16.40;99.90;;;;;;5080470;28;20054;-51
2022/05/20 06:57:53;;;;;;;11.82;9.13;;;16.90;99.90;;;;;;5065514;28;20055;-45
2022/05/20 07:00:19;;;;;;;9.80;8.90;;;17.20;99.90;;;;;;5067025;28;20047;-51
2022/05/20 07:02:45;;;;;;;12.80;11.05;;;17.40;99.90;;;;;;5066075;28;20413;-51
2022/05/20 07:05:11;;;;;;;10.75;7.78;;;17.10;99.90;;;;;;5068568;28;20074;-59
2022/05/20 07:07:38;;;;;;;9.65;7.57;;;17.40;99.90;;;;;;5090876;28;20044;-60
2022/05/20 07:10:06;;;;;;;11.00;8.50;;;17.60;99.90;;;;;;5065635;28;20117;-60
2022/05/20 07:12:33;;;;;;;10.43;9.00;;;17.70;99.90;;;;;;5064930;28;20048;-47
2022/05/20 07:15:00;;;;;;;12.63;9.18;;;17.60;99.90;;;;;;5092704;28;20484;-46
2022/05/20 07:17:27;;;;;;;12.98;8.93;;;17.60;99.90;;;;;;5097996;28;20123;-45
2022/05/20 07:19:54;;;;;;;10.35;8.57;;;17.50;99.90;;;;;;5085059;28;20052;-48
2022/05/20 07:22:20;;;;;;;9.77;8.85;;;17.60;99.90;;;;;;5060552;28;20044;-50
2022/05/20 07:24:46;;;;;;;11.00;9.35;;;17.50;99.90;;;;;;5062704;28;20040;-47
2022/05/20 07:27:13;;;;;;;12.32;9.27;;;17.60;99.90;;;;;;5048623;28;20071;-49
2022/05/20 07:29:40;;;;;;;12.23;7.88;;;17.30;99.90;;;;;;5058917;28;20052;-48
2022/05/20 07:32:06;;;;;;;11.07;7.80;;;17.70;99.90;;;;;;5053511;28;20055;-46
2022/05/20 07:34:33;;;;;;;9.57;8.15;;;17.90;99.90;;;;;;5043592;28;20039;-54
2022/05/20 07:37:00;;;;;;;8.88;6.97;;;18.30;99.90;;;;;;5082479;28;20929;-47
2022/05/20 07:39:26;;;;;;;9.90;7.18;;;18.60;99.90;;;;;;5083677;28;20631;-57
2022/05/20 07:41:52;;;;;;;10.20;6.95;;;18.80;99.90;;;;;;5062348;28;20075;-58
2022/05/20 07:44:19;;;;;;;11.50;7.65;;;19.00;99.90;;;;;;5061700;28;20060;-58
2022/05/20 07:46:45;;;;;;;8.43;6.65;;;18.40;99.90;;;;;;5054619;28;21263;-58
2022/05/20 07:49:11;;;;;;;9.00;5.90;;;18.90;99.90;;;;;;5084055;28;20052;-58
2022/05/20 07:51:41;;;;;;;9.15;6.75;;;18.80;99.90;;;;;;5048605;28;20056;-58
2022/05/20 07:54:13;;;;;;;9.70;7.05;;;19.00;99.90;;;;;;5083446;28;20140;-58
2022/05/20 07:56:44;;;;;;;10.65;6.60;;;19.30;99.90;;;;;;5068780;28;20070;-58
2022/05/20 07:59:29;;;;;;;8.55;6.25;;;19.50;99.90;;;;;;5051694;28;20397;-58
2022/05/20 08:01:57;;;;;;;9.82;7.43;;;19.60;99.90;;;;;;5065372;28;20084;-58
2022/05/20 08:07:13;;;;;;;8.52;7.35;;;19.80;99.90;;;;;;5081509;28;20503;-58
2022/05/20 08:09:39;;;;;;;10.13;7.00;;;20.00;99.90;;;;;;5069985;28;20091;-58
2022/05/20 08:12:06;;;;;;;8.15;6.70;;;20.10;99.90;;;;;;5064696;28;20089;-59
2022/05/20 08:14:32;;;;;;;9.82;7.43;;;20.10;99.90;;;;;;5045792;28;20384;-59
2022/05/20 08:17:00;;;;;;;10.80;8.85;;;20.00;99.90;;;;;;5050912;28;20733;-59
2022/05/20 08:19:26;;;;;;;11.38;7.75;;;20.30;99.90;;;;;;5083508;28;20127;-60
2022/05/20 08:21:52;;;;;;;9.82;7.97;;;20.20;99.90;;;;;;5066018;28;20425;-60
2022/05/20 08:24:18;;;;;;;9.13;7.57;;;20.40;99.90;;;;;;5067087;28;20120;-49
2022/05/20 08:26:46;;;;;;;9.40;7.22;;;20.50;99.90;;;;;;5086643;28;20036;-51
2022/05/20 08:29:12;;;;;;;8.48;7.57;;;20.00;99.90;;;;;;5068300;28;20130;-48
2022/05/20 08:31:42;;;;;;;8.50;7.65;;;19.90;99.90;;;;;;5090615;28;20048;-49
2022/05/20 08:34:10;;;;;;;9.70;7.60;;;19.80;99.90;;;;;;5035959;28;20059;-51
2022/05/20 08:36:38;;;;;;;9.20;7.82;;;20.10;99.90;;;;;;5065630;28;20416;-51
2022/05/20 08:39:06;;;;;;;8.73;7.47;;;20.20;99.90;;;;;;5064326;28;20044;-59
2022/05/20 08:41:40;;;;;;;8.30;7.50;;;20.10;99.90;;;;;;5089552;28;20098;-59
2022/05/20 08:44:11;;;;;;;8.50;7.22;;;20.50;99.90;;;;;;5061078;28;20058;-59
2022/05/20 08:46:39;;;;;;;9.40;7.63;;;20.60;99.90;;;;;;5086732;28;20052;-59
2022/05/20 08:49:09;;;;;;;10.18;7.85;;;20.70;99.90;;;;;;5067901;28;20048;-53
2022/05/20 08:51:35;;;;;;;11.50;8.38;;;21.30;99.90;;;;;;5090064;28;20039;-49
2022/05/20 08:54:02;;;;;;;10.77;6.65;;;21.60;99.90;;;;;;5045127;28;20054;-50
2022/05/20 08:56:29;;;;;;;8.95;7.90;;;21.70;99.90;;;;;;5080601;28;20409;-50
2022/05/20 08:59:04;;;;;;;9.93;7.07;;;21.20;99.90;;;;;;5080703;28;20086;-52
2022/05/20 09:01:37;;;;;;;8.70;6.80;;;20.80;99.90;;;;;;5082072;28;20053;-59
2022/05/20 09:04:09;;;;;;;9.10;7.90;;;21.00;99.90;;;;;;5046703;28;20508;-61
2022/05/20 09:06:41;;;;;;;10.48;8.00;;;21.70;99.90;;;;;;5087265;28;20051;-59
2022/05/20 09:09:11;;;;;;;9.45;7.68;;;21.80;99.90;;;;;;5074452;28;20042;-59
2022/05/20 09:11:40;;;;;;;9.73;7.82;;;21.90;99.90;;;;;;5080202;28;20097;-60
2022/05/20 09:17:15;;;;;;;10.10;9.10;;;22.20;99.90;;;;;;5079092;28;20036;-56
2022/05/20 09:20:06;;;;;;;28.50;25.83;;;22.60;99.90;;;;;;5078820;28;20537;-56
2022/05/20 09:22:36;;;;;;;10.75;9.68;;;22.80;95.10;;;;;;5057742;28;20067;-51
2022/05/20 09:25:26;;;;;;;11.32;10.27;;;22.40;99.90;;;;;;5079197;28;20048;-55
2022/05/20 09:27:56;;;;;;;8.73;7.30;;;22.70;94.00;;;;;;5079121;28;20043;-54
2022/05/20 09:30:23;;;;;;;9.00;6.85;;;22.80;99.90;;;;;;5043903;28;20512;-58
2022/05/20 09:33:09;;;;;;;7.30;6.60;;;22.90;99.90;;;;;;5058972;28;20064;-60
2022/05/20 09:35:35;;;;;;;9.65;8.65;;;23.10;91.50;;;;;;5077782;28;20487;-60
2022/05/20 09:38:10;;;;;;;9.00;7.72;;;23.10;99.90;;;;;;5059651;28;20101;-58
2022/05/20 09:40:41;;;;;;;7.82;7.03;;;23.40;99.90;;;;;;5063240;28;20130;-55
2022/05/20 09:43:28;;;;;;;9.18;8.30;;;22.90;91.90;;;;;;5063828;28;20105;-58
2022/05/20 09:45:57;;;;;;;13.02;11.10;;;23.30;92.70;;;;;;5061601;28;20513;-51
2022/05/20 09:48:43;;;;;;;12.95;11.77;;;23.20;93.90;;;;;;5057892;28;20052;-49
2022/05/20 09:51:19;;;;;;;11.70;10.52;;;23.20;99.40;;;;;;5061997;28;20067;-54
2022/05/20 09:54:00;;;;;;;10.50;9.40;;;23.10;98.10;;;;;;5078971;28;20147;-53
2022/05/20 09:56:32;;;;;;;13.02;10.75;;;22.80;97.50;;;;;;5076332;28;20051;-53
2022/05/20 09:59:25;;;;;;;9.55;7.10;;;22.70;99.50;;;;;;5080628;28;20040;-51
2022/05/20 10:02:25;;;;;;;11.32;10.18;;;22.60;96.10;;;;;;5064026;28;20052;-49
2022/05/20 10:04:57;;;;;;;8.25;7.05;;;22.20;94.60;;;;;;5077489;28;20040;-53
2022/05/20 10:07:49;;;;;;;7.85;5.97;;;22.20;94.20;;;;;;5077099;28;20404;-53
2022/05/20 10:10:36;;;;;;;10.07;7.13;;;22.10;66.00;;;;;;5058384;28;20607;-50
2022/05/20 10:13:06;;;;;;;8.50;5.53;;;22.30;78.80;;;;;;5048310;28;20090;-53
2022/05/20 10:15:44;;;;;;;8.18;6.93;;;22.10;79.90;;;;;;5056748;28;20059;-53
2022/05/20 10:18:34;;;;;;;8.50;7.60;;;22.20;92.10;;;;;;5053105;28;20063;-49
2022/05/20 10:21:06;;;;;;;8.67;7.87;;;22.20;96.00;;;;;;5042638;28;20045;-53
2022/05/20 10:24:06;;;;;;;11.88;8.90;;;22.50;97.80;;;;;;5048454;28;20124;-48
2022/05/20 10:26:43;;;;;;;8.18;7.30;;;22.90;95.50;;;;;;5041168;28;20048;-53
2022/05/20 10:32:34;;;;;;;9.32;8.32;;;22.70;95.50;;;;;;5038388;28;20048;-52
2022/05/20 10:35:04;;;;;;;8.93;6.65;;;22.70;97.00;;;;;;5040612;28;20048;-52
2022/05/20 10:38:12;;;;;;;7.95;6.57;;;22.90;92.00;;;;;;5042753;28;20053;-53
2022/05/20 10:40:55;;;;;;;7.97;5.63;;;23.00;78.60;;;;;;5044901;28;20409;-53
2022/05/20 10:50:10;;;;;;;101.50;92.05;;;22.90;76.80;;;;;;5057881;28;20848;-50
2022/05/20 10:52:53;;;;;;;18.40;16.38;;;23.20;75.10;;;;;;5061780;28;20105;-52
2022/05/20 10:55:37;;;;;;;10.93;9.85;;;23.30;89.40;;;;;;5048829;28;20060;-53
2022/05/20 10:58:21;;;;;;;10.63;9.70;;;23.50;90.70;;;;;;5060816;28;20056;-50
2022/05/20 11:00:52;;;;;;;10.15;9.18;;;23.30;94.30;;;;;;5061197;28;20044;-49
2022/05/20 11:03:21;;;;;;;;;;;23.30;94.00;;;;;;5057761;28;20040;-52
2022/05/20 11:06:09;;;;;;;13.60;12.27;;;23.50;93.20;;;;;;5062961;28;19963;-50
2022/05/20 11:08:47;;;;;;;6.15;5.53;;;23.70;71.20;;;;;;5062860;28;20134;-52
2022/05/20 11:11:35;;;;;;;8.90;7.93;;;23.80;58.30;;;;;;5059058;28;20052;-51
2022/05/20 11:14:39;;;;;;;8.32;7.43;;;24.00;52.80;;;;;;5038919;28;20217;-58
2022/05/20 11:17:08;;;;;;;7.03;6.25;;;23.70;55.20;;;;;;5063651;28;20435;-57
2022/05/20 11:19:40;;;;;;;9.02;8.10;;;24.10;59.00;;;;;;5083524;28;20074;-58
2022/05/20 11:22:30;;;;;;;8.80;7.90;;;24.00;59.20;;;;;;5089065;28;20043;-58
2022/05/20 11:25:14;;;;;;;8.13;7.32;;;24.40;66.80;;;;;;5090818;28;20426;-58
2022/05/20 11:27:54;;;;;;;8.05;7.25;;;24.60;57.60;;;;;;5084012;28;21875;-58
2022/05/20 11:30:20;;;;;;;7.72;6.18;;;24.50;55.10;;;;;;5059778;28;20505;-59
2022/05/20 11:32:46;;;;;;;8.18;7.38;;;24.30;55.80;;;;;;5078265;28;20044;-58
2022/05/20 11:35:59;;;;;;;8.32;7.35;;;24.40;59.20;;;;;;5058055;28;20040;-58
2022/05/20 11:38:46;;;;;;;7.15;5.32;;;24.30;63.10;;;;;;4978824;28;20046;-58
2022/05/20 11:41:40;;;;;;;4.25;3.40;;;25.00;55.40;;;;;;5061544;28;20524;-56
2022/05/20 11:44:25;;;;;;;6.68;4.40;;;25.40;47.50;;;;;;5064881;28;20083;-57
2022/05/20 11:47:06;;;;;;;6.63;3.22;;;25.50;49.10;;;;;;5060678;28;20694;-56
2022/05/20 11:49:52;;;;;;;4.90;3.15;;;25.80;47.30;;;;;;5042478;28;20048;-56
2022/05/20 11:52:39;;;;;;;5.15;2.92;;;25.50;46.20;;;;;;5074420;28;20162;-57
2022/05/20 11:55:23;;;;;;;3.25;2.70;;;25.00;45.10;;;;;;5082806;28;20591;-56
2022/05/20 11:58:04;;;;;;;6.22;3.70;;;24.70;46.30;;;;;;5064782;28;20479;-56
2022/05/20 12:00:32;;;;;;;6.78;4.10;;;24.30;45.60;;;;;;5058148;28;20147;-56
2022/05/20 12:03:21;;;;;;;6.57;4.43;;;24.30;48.50;;;;;;5079501;28;20047;-55
2022/05/20 12:05:49;;;;;;;6.50;4.13;;;23.80;47.80;;;;;;5082027;28;20051;-55
2022/05/20 12:09:00;;;;;;;5.80;3.33;;;23.60;50.20;;;;;;5082176;28;20040;-56
2022/05/20 12:11:37;;;;;;;4.32;3.50;;;23.50;52.40;;;;;;5052987;28;20054;-53
2022/05/20 12:14:07;;;;;;;11.43;10.23;;;23.40;57.30;;;;;;5056274;28;20055;-54
2022/05/20 12:16:53;;;;;;;6.72;5.63;;;23.30;57.60;;;;;;5095416;28;20052;-55
2022/05/20 12:25:32;;;;;;;6.18;4.07;;;23.40;58.30;;;;;;5083371;28;20632;-60
2022/05/20 12:28:21;;;;;;;6.30;4.38;;;23.30;60.30;;;;;;5096604;28;20048;-61
2022/05/20 12:31:09;;;;;;;15.05;5.68;;;23.30;58.80;;;;;;5077167;28;20036;-51
2022/05/20 12:33:59;;;;;;;7.60;6.60;;;23.40;76.40;;;;;;5081384;28;20044;-52
2022/05/20 12:36:28;;;;;;;10.80;7.80;;;23.30;71.20;;;;;;5091585;28;20051;-61
2022/05/20 12:39:06;;;;;;;8.90;7.68;;;23.40;87.20;;;;;;5067904;28;20773;-49
2022/05/20 12:41:45;;;;;;;6.40;5.47;;;23.50;83.20;;;;;;5067900;28;20044;-52
2022/05/20 12:44:17;;;;;;;101.70;91.80;;;23.20;68.40;;;;;;5066363;28;20051;-59
2022/05/20 12:47:02;;;;;;;89.22;80.68;;;23.00;77.40;;;;;;5068398;28;20079;-59
2022/05/20 12:49:48;;;;;;;8.45;6.40;;;23.10;88.50;;;;;;5085047;28;20128;-60
2022/05/20 12:52:21;;;;;;;10.50;7.18;;;22.80;84.20;;;;;;5047441;28;20127;-60
2022/05/20 12:54:52;;;;;;;9.35;7.15;;;22.60;92.30;;;;;;5066476;28;20059;-51
2022/05/20 12:57:23;;;;;;;9.70;8.40;;;22.40;94.60;;;;;;5105615;28;20074;-53
2022/05/20 13:00:13;;;;;;;7.80;7.00;;;22.40;95.10;;;;;;5105397;28;20044;-54
2022/05/20 13:02:53;;;;;;;12.27;11.18;;;22.30;99.00;;;;;;5105616;28;20070;-50
2022/05/20 13:05:25;;;;;;;11.90;10.80;;;22.10;96.20;;;;;;5070789;28;20078;-52
2022/05/20 13:07:54;;;;;;;13.60;12.45;;;21.90;99.90;;;;;;5049449;28;20483;-48
2022/05/20 13:10:36;;;;;;;14.40;13.07;;;21.70;98.50;;;;;;5090649;28;20086;-51
2022/05/20 13:13:15;;;;;;;14.50;13.20;;;21.50;99.90;;;;;;5096926;28;20089;-52
2022/05/20 13:15:48;;;;;;;15.30;13.93;;;21.20;99.90;;;;;;5073186;28;20087;-51
2022/05/20 13:18:32;;;;;;;14.73;13.40;;;21.20;99.90;;;;;;5095836;28;20572;-51
2022/05/20 13:21:11;;;;;;;15.82;14.40;;;21.00;99.90;;;;;;5062850;28;20042;-54
2022/05/20 13:23:40;;;;;;;16.20;13.95;;;21.00;99.90;;;;;;5087614;28;20039;-52
2022/05/20 13:26:23;;;;;;;15.85;14.40;;;20.80;99.90;;;;;;5094312;28;20043;-50
2022/05/20 13:28:50;;;;;;;13.65;12.45;;;20.70;99.90;;;;;;5082383;28;20055;-51
2022/05/20 13:31:22;;;;;;;14.23;12.93;;;20.60;99.90;;;;;;5085633;28;20047;-53
2022/05/20 13:33:48;;;;;;;13.27;12.07;;;20.50;99.90;;;;;;5058415;28;20475;-54
2022/05/20 13:36:19;;;;;;;14.45;13.15;;;20.50;99.90;;;;;;5050006;28;20059;-49
2022/05/20 13:38:53;;;;;;;13.20;11.93;;;20.50;99.90;;;;;;5056983;28;20054;-50
2022/05/20 13:41:22;;;;;;;13.60;12.40;;;20.50;99.90;;;;;;5072167;28;20044;-49
2022/05/20 13:43:52;;;;;;;15.15;12.93;;;20.20;99.90;;;;;;5070211;28;20096;-51